createdAt,value
2019-04-13T00:01:42.697Z,6.90
2019-04-13T00:03:53.671Z,6.92
2019-04-13T00:06:09.195Z,6.85
2019-04-13T00:08:22.081Z,6.83
2019-04-13T00:10:34.880Z,6.84
2019-04-13T00:12:45.744Z,6.87
2019-04-13T00:14:56.677Z,6.91
2019-04-13T00:17:07.930Z,6.87
2019-04-13T00:19:18.774Z,6.90
2019-04-13T00:21:29.675Z,6.96
2019-04-13T00:23:40.596Z,6.94
2019-04-13T00:25:51.530Z,6.87
2019-04-13T00:28:02.581Z,6.87
2019-04-13T00:30:13.414Z,6.79
2019-04-13T00:32:26.465Z,6.73
2019-04-13T00:34:41.632Z,6.73
2019-04-13T00:36:50.073Z,6.69
2019-04-13T00:39:01.032Z,6.64
2019-04-13T00:41:11.970Z,6.61
2019-04-13T00:43:22.850Z,6.61
2019-04-13T00:45:33.685Z,6.57
2019-04-13T00:47:44.540Z,6.54
2019-04-13T00:49:55.484Z,6.54
2019-04-13T00:52:06.341Z,6.58
2019-04-13T00:54:17.213Z,6.55
2019-04-13T00:56:28.050Z,6.61
2019-04-13T00:58:38.904Z,6.61
2019-04-13T01:00:49.772Z,6.61
2019-04-13T01:03:00.699Z,6.63
2019-04-13T01:05:11.638Z,6.63
2019-04-13T01:07:22.481Z,6.58
2019-04-13T01:09:33.426Z,6.60
2019-04-13T01:11:44.264Z,6.60
2019-04-13T01:13:55.151Z,6.53
2019-04-13T01:16:05.982Z,6.46
2019-04-13T01:18:17.178Z,6.43
2019-04-13T01:20:28.022Z,6.40
2019-04-13T01:22:38.849Z,6.39
2019-04-13T01:24:49.739Z,6.41
2019-04-13T01:27:00.602Z,6.37
2019-04-13T01:29:11.481Z,6.39
2019-04-13T01:31:22.308Z,6.37
2019-04-13T01:33:33.178Z,6.30
2019-04-13T01:35:44.016Z,6.33
2019-04-13T01:37:54.887Z,6.30
2019-04-13T01:40:06.038Z,6.28
2019-04-13T01:42:16.879Z,6.26
2019-04-13T01:44:27.766Z,6.26
2019-04-13T01:46:38.695Z,6.16
2019-04-13T01:48:49.548Z,6.10
2019-04-13T01:51:00.400Z,6.10
2019-04-13T01:53:11.380Z,6.12
2019-04-13T01:55:22.331Z,6.10
2019-04-13T01:57:33.156Z,6.05
2019-04-13T01:59:44.021Z,6.02
2019-04-13T02:02:06.010Z,6.03
2019-04-13T02:04:35.486Z,6.08
2019-04-13T02:07:00.234Z,6.07
2019-04-13T02:09:13.280Z,6.12
2019-04-13T02:11:26.036Z,6.14
2019-04-13T02:13:36.876Z,6.13
2019-04-13T02:15:47.731Z,6.11
2019-04-13T02:17:58.579Z,6.11
2019-04-13T02:20:09.630Z,6.06
2019-04-13T02:22:20.561Z,6.02
2019-04-13T02:24:31.406Z,6.00
2019-04-13T02:26:42.356Z,6.00
2019-04-13T02:28:53.191Z,6.03
2019-04-13T02:31:04.162Z,5.98
2019-04-13T02:33:15.006Z,6.00
2019-04-13T02:35:35.390Z,6.02
2019-04-13T02:37:38.638Z,5.99
2019-04-13T02:39:49.531Z,6.01
2019-04-13T02:42:00.478Z,6.05
2019-04-13T02:44:11.413Z,6.08
2019-04-13T02:46:22.286Z,6.05
2019-04-13T02:48:33.149Z,6.01
2019-04-13T02:50:43.998Z,5.95
2019-04-13T02:52:54.869Z,5.97
2019-04-13T02:55:06.011Z,6.02
2019-04-13T02:57:18.876Z,5.95
2019-04-13T02:59:29.713Z,5.90
2019-04-13T03:01:40.666Z,5.87
2019-04-13T03:03:51.598Z,5.85
2019-04-13T03:06:02.485Z,5.81
2019-04-13T03:08:13.337Z,5.79
2019-04-13T03:10:24.568Z,5.74
2019-04-13T03:12:35.517Z,5.76
2019-04-13T03:14:46.458Z,5.79
2019-04-13T03:17:14.263Z,5.71
2019-04-13T03:19:43.646Z,5.67
2019-04-13T03:21:54.604Z,5.68
2019-04-13T03:24:05.535Z,5.69
2019-04-13T03:26:16.481Z,5.69
2019-04-13T03:28:27.354Z,5.70
2019-04-13T03:30:38.293Z,5.73
2019-04-13T03:32:49.197Z,5.78
2019-04-13T03:35:00.201Z,5.79
2019-04-13T03:37:11.180Z,5.78
2019-04-13T03:39:22.032Z,5.75
2019-04-13T03:41:33.060Z,5.78
2019-04-13T03:43:43.921Z,5.77
2019-04-13T03:45:54.850Z,5.75
2019-04-13T03:48:05.697Z,5.74
2019-04-13T03:50:16.631Z,5.68
2019-04-13T03:52:27.564Z,5.64
2019-04-13T03:54:38.443Z,5.61
2019-04-13T03:56:49.279Z,5.58
2019-04-13T03:59:00.250Z,5.51
2019-04-13T04:01:11.091Z,5.48
2019-04-13T04:03:21.955Z,5.47
2019-04-13T04:05:32.794Z,5.49
2019-04-13T04:07:43.638Z,5.51
2019-04-13T04:09:54.677Z,5.50
2019-04-13T04:12:05.505Z,5.46
2019-04-13T04:14:16.372Z,5.46
2019-04-13T04:16:27.315Z,5.49
2019-04-13T04:18:38.225Z,5.51
2019-04-13T04:20:49.004Z,5.54
2019-04-13T04:22:59.847Z,5.54
2019-04-13T04:25:10.694Z,5.53
2019-04-13T04:27:21.675Z,5.45
2019-04-13T04:29:32.559Z,5.47
2019-04-13T04:31:43.408Z,5.48
2019-04-13T04:33:54.251Z,5.44
2019-04-13T04:36:05.197Z,5.41
2019-04-13T04:38:16.138Z,5.44
2019-04-13T04:40:26.988Z,5.46
2019-04-13T04:42:37.816Z,5.42
2019-04-13T04:44:48.686Z,5.42
2019-04-13T04:46:59.553Z,5.41
2019-04-13T04:49:10.395Z,5.39
2019-04-13T04:51:23.139Z,5.31
2019-04-13T04:53:33.975Z,5.29
2019-04-13T04:55:44.821Z,5.29
2019-04-13T04:57:55.765Z,5.29
2019-04-13T05:00:06.945Z,5.29
2019-04-13T05:02:17.847Z,5.28
2019-04-13T05:04:28.738Z,5.31
2019-04-13T05:06:39.690Z,5.31
2019-04-13T05:08:50.530Z,5.34
2019-04-13T05:11:01.389Z,5.34
2019-04-13T05:13:12.235Z,5.37
2019-04-13T05:15:23.094Z,5.28
2019-04-13T05:17:33.945Z,5.23
2019-04-13T05:19:44.815Z,5.23
2019-04-13T05:21:55.669Z,5.26
2019-04-13T05:24:06.526Z,5.31
2019-04-13T05:26:17.392Z,5.25
2019-04-13T05:28:28.229Z,5.22
2019-04-13T05:30:39.099Z,5.15
2019-04-13T05:32:49.956Z,5.11
2019-04-13T05:35:00.788Z,5.15
2019-04-13T05:37:11.663Z,5.16
2019-04-13T05:39:22.496Z,5.12
2019-04-13T05:41:33.460Z,5.17
2019-04-13T05:43:44.302Z,5.16
2019-04-13T05:45:55.129Z,5.11
2019-04-13T05:48:06.015Z,5.07
2019-04-13T05:50:16.855Z,5.14
2019-04-13T05:52:27.720Z,5.09
2019-04-13T05:54:38.558Z,5.07
2019-04-13T05:56:49.518Z,5.09
2019-04-13T05:59:03.349Z,5.12
2019-04-13T06:01:13.115Z,5.09
2019-04-13T06:03:23.970Z,5.10
2019-04-13T06:05:34.824Z,5.13
2019-04-13T06:07:45.741Z,5.14
2019-04-13T06:09:56.563Z,5.11
2019-04-13T06:12:10.191Z,5.27
2019-04-13T06:14:20.241Z,5.98
2019-04-13T06:16:31.079Z,6.48
2019-04-13T06:18:44.743Z,6.52
2019-04-13T06:20:55.586Z,6.35
2019-04-13T06:23:06.455Z,6.20
2019-04-13T06:25:17.400Z,6.16
2019-04-13T06:27:28.308Z,6.70
2019-04-13T06:29:39.171Z,6.83
2019-04-13T06:31:51.924Z,6.70
2019-04-13T06:34:07.471Z,6.56
2019-04-13T06:36:18.325Z,6.47
2019-04-13T06:38:29.206Z,6.47
2019-04-13T06:40:40.857Z,6.40
2019-04-13T06:42:54.808Z,6.40
2019-04-13T06:45:04.871Z,6.38
2019-04-13T06:47:15.807Z,6.34
2019-04-13T06:49:26.690Z,6.23
2019-04-13T06:51:37.588Z,6.23
2019-04-13T06:53:48.553Z,6.18
2019-04-13T06:55:59.415Z,6.19
2019-04-13T06:58:10.287Z,6.15
2019-04-13T07:00:21.164Z,6.10
2019-04-13T07:02:32.014Z,6.03
2019-04-13T07:04:42.962Z,5.99
2019-04-13T07:06:54.594Z,6.00
2019-04-13T07:09:19.634Z,6.05
2019-04-13T07:11:35.329Z,6.17
2019-04-13T07:13:50.814Z,6.21
2019-04-13T07:16:12.346Z,6.22
2019-04-13T07:18:23.248Z,6.18
2019-04-13T07:20:34.093Z,6.15
2019-04-13T07:22:44.930Z,6.17
2019-04-13T07:24:55.816Z,6.17
2019-04-13T07:27:06.664Z,6.17
2019-04-13T07:29:17.640Z,6.22
2019-04-13T07:31:31.179Z,6.22
2019-04-13T07:33:41.330Z,6.24
2019-04-13T07:35:52.194Z,6.22
2019-04-13T07:38:03.092Z,6.20
2019-04-13T07:40:14.006Z,6.25
2019-04-13T07:42:25.020Z,6.26
2019-04-13T07:44:43.798Z,6.32
2019-04-13T07:46:56.569Z,6.35
2019-04-13T07:49:13.725Z,6.47
2019-04-13T07:51:40.507Z,6.48
2019-04-13T07:53:51.371Z,6.37
2019-04-13T07:56:02.327Z,6.37
2019-04-13T07:58:16.679Z,6.39
2019-04-13T08:00:27.998Z,6.43
2019-04-13T08:02:39.031Z,6.45
2019-04-13T08:04:49.975Z,6.50
2019-04-13T08:07:00.836Z,6.52
2019-04-13T08:09:11.687Z,6.54
2019-04-13T08:11:22.678Z,6.52
2019-04-13T08:13:33.550Z,6.54
2019-04-13T08:15:44.504Z,6.52
2019-04-13T08:17:55.457Z,6.45
2019-04-13T08:20:29.521Z,6.47
2019-04-13T08:22:38.048Z,6.52
2019-04-13T08:24:49.203Z,6.58
2019-04-13T08:27:00.181Z,6.64
2019-04-13T08:29:11.093Z,6.96
2019-04-13T08:31:26.342Z,6.92
2019-04-13T08:33:36.177Z,6.88
2019-04-13T08:35:47.028Z,6.82
2019-04-13T08:38:12.235Z,6.79
2019-04-13T08:40:12.125Z,6.81
2019-04-13T08:42:26.296Z,6.75
2019-04-13T08:44:36.820Z,6.70
2019-04-13T08:46:48.251Z,6.80
2019-04-13T08:48:59.210Z,6.88
2019-04-13T08:51:10.082Z,7.01
2019-04-13T08:53:21.024Z,7.05
2019-04-13T08:55:31.902Z,7.14
2019-04-13T08:57:42.757Z,7.27
2019-04-13T08:59:53.647Z,7.35
2019-04-13T09:02:04.493Z,7.47
2019-04-13T09:04:15.404Z,7.46
2019-04-13T09:06:26.490Z,7.39
2019-04-13T09:08:37.360Z,7.38
2019-04-13T09:10:49.328Z,7.32
2019-04-13T09:13:01.093Z,7.35
2019-04-13T09:15:12.644Z,7.39
2019-04-13T09:17:24.804Z,7.44
2019-04-13T09:19:40.827Z,7.40
2019-04-13T09:21:55.597Z,7.47
2019-04-13T09:24:06.602Z,7.47
2019-04-13T09:26:17.476Z,7.45
2019-04-13T09:28:28.322Z,7.49
2019-04-13T09:30:40.876Z,7.48
2019-04-13T09:32:51.705Z,7.56
2019-04-13T09:35:03.450Z,7.54
2019-04-13T09:37:14.344Z,7.47
2019-04-13T09:39:25.227Z,7.48
2019-04-13T09:41:36.429Z,7.52
2019-04-13T09:43:59.588Z,7.53
2019-04-13T09:46:10.549Z,7.66
2019-04-13T09:48:21.456Z,7.80
2019-04-13T09:50:36.661Z,7.95
2019-04-13T09:52:45.095Z,8.12
2019-04-13T09:54:55.948Z,8.24
2019-04-13T09:57:06.903Z,8.25
2019-04-13T09:59:17.845Z,8.28
2019-04-13T10:01:31.085Z,8.24
2019-04-13T10:03:41.569Z,8.16
2019-04-13T10:05:52.438Z,8.12
2019-04-13T10:08:05.592Z,8.18
2019-04-13T10:10:16.186Z,8.16
2019-04-13T10:12:32.071Z,8.21
2019-04-13T10:14:54.067Z,8.29
2019-04-13T10:17:06.852Z,8.41
2019-04-13T10:19:17.835Z,8.75
2019-04-13T10:21:28.691Z,8.70
2019-04-13T10:23:39.592Z,8.63
2019-04-13T10:25:50.590Z,8.65
2019-04-13T10:28:01.467Z,8.58
2019-04-13T10:30:12.515Z,8.44
2019-04-13T10:32:23.394Z,8.37
2019-04-13T10:34:34.299Z,8.35
2019-04-13T10:36:45.141Z,8.33
2019-04-13T10:39:07.703Z,8.37
2019-04-13T10:41:09.523Z,8.38
2019-04-13T10:43:20.693Z,8.46
2019-04-13T10:45:33.673Z,8.47
2019-04-13T10:47:58.523Z,8.53
2019-04-13T10:50:17.595Z,8.44
2019-04-13T10:52:28.471Z,8.59
2019-04-13T10:54:39.347Z,8.81
2019-04-13T10:56:50.196Z,8.97
2019-04-13T10:59:01.162Z,9.04
2019-04-13T11:01:14.628Z,9.13
2019-04-13T11:03:24.841Z,9.12
2019-04-13T11:05:36.541Z,9.22
2019-04-13T11:07:47.501Z,9.27
2019-04-13T11:10:01.271Z,9.28
2019-04-13T11:12:11.247Z,9.34
2019-04-13T11:14:22.213Z,9.30
2019-04-13T11:16:33.664Z,9.16
2019-04-13T11:18:44.560Z,9.11
2019-04-13T11:20:55.405Z,9.12
2019-04-13T11:23:06.498Z,9.06
2019-04-13T11:25:21.490Z,9.06
2019-04-13T11:27:30.190Z,8.92
2019-04-13T11:29:41.057Z,8.99
2019-04-13T11:31:54.781Z,8.96
2019-04-13T11:34:04.731Z,8.97
2019-04-13T11:36:15.766Z,8.88
2019-04-13T11:38:26.779Z,8.92
2019-04-13T11:40:37.609Z,8.88
2019-04-13T11:42:56.323Z,8.85
2019-04-13T11:45:25.691Z,8.82
2019-04-13T11:47:38.541Z,8.80
2019-04-13T11:49:56.723Z,8.73
2019-04-13T11:52:04.362Z,8.73
2019-04-13T11:54:15.339Z,8.77
2019-04-13T11:56:28.779Z,8.78
2019-04-13T11:58:39.348Z,8.79
2019-04-13T12:00:52.110Z,8.81
2019-04-13T12:03:21.489Z,8.79
2019-04-13T12:05:34.532Z,8.75
2019-04-13T12:07:50.256Z,8.75
2019-04-13T12:10:05.729Z,8.75
2019-04-13T12:12:27.543Z,8.70
2019-04-13T12:14:56.975Z,8.65
2019-04-13T12:17:18.685Z,8.63
2019-04-13T12:19:40.564Z,8.63
2019-04-13T12:21:53.436Z,8.48
2019-04-13T12:24:06.322Z,8.46
2019-04-13T12:26:17.205Z,8.48
2019-04-13T12:28:28.098Z,8.52
2019-04-13T12:30:42.761Z,8.63
2019-04-13T12:32:53.735Z,8.68
2019-04-13T12:35:08.297Z,8.70
2019-04-13T12:37:17.584Z,8.71
2019-04-13T12:39:28.426Z,8.75
2019-04-13T12:41:53.556Z,8.79
2019-04-13T12:44:04.510Z,8.88
2019-04-13T12:46:15.570Z,8.89
2019-04-13T12:48:26.605Z,8.87
2019-04-13T12:50:37.399Z,8.91
2019-04-13T12:52:48.230Z,8.88
2019-04-13T12:54:59.288Z,8.85
2019-04-13T12:57:10.534Z,8.78
2019-04-13T12:59:21.493Z,8.74
2019-04-13T13:01:34.373Z,8.70
2019-04-13T13:03:45.632Z,8.69
2019-04-13T13:05:56.951Z,8.78
2019-04-13T13:08:08.377Z,8.77
2019-04-13T13:10:24.347Z,8.69
2019-04-13T13:12:32.861Z,8.69
2019-04-13T13:14:43.711Z,8.76
2019-04-13T13:16:54.698Z,8.72
2019-04-13T13:19:05.552Z,8.69
2019-04-13T13:21:16.415Z,8.66
2019-04-13T13:23:27.400Z,8.70
2019-04-13T13:25:38.360Z,8.59
2019-04-13T13:27:49.326Z,8.45
2019-04-13T13:30:00.281Z,8.37
2019-04-13T13:32:11.255Z,8.34
2019-04-13T13:34:22.239Z,8.34
2019-04-13T13:36:33.184Z,8.29
2019-04-13T13:38:44.069Z,8.26
2019-04-13T13:40:54.919Z,8.18
2019-04-13T13:43:05.784Z,8.18
2019-04-13T13:45:16.731Z,8.12
2019-04-13T13:47:28.035Z,8.06
2019-04-13T13:49:39.028Z,7.98
2019-04-13T13:51:56.004Z,7.89
2019-04-13T13:54:02.980Z,7.89
2019-04-13T13:56:13.830Z,7.87
2019-04-13T13:58:26.740Z,7.78
2019-04-13T14:00:39.481Z,7.76
2019-04-13T14:02:50.579Z,7.70
2019-04-13T14:05:01.645Z,7.65
2019-04-13T14:07:14.416Z,7.57
2019-04-13T14:09:28.110Z,7.53
2019-04-13T14:11:38.057Z,7.38
2019-04-13T14:13:49.027Z,7.31
2019-04-13T14:16:00.022Z,7.34
2019-04-13T14:18:11.004Z,7.16
2019-04-13T14:20:21.910Z,7.12
2019-04-13T14:22:32.773Z,7.12
2019-04-13T14:24:47.812Z,7.17
2019-04-13T14:26:56.383Z,7.26
2019-04-13T14:29:10.483Z,7.22
2019-04-13T14:31:20.016Z,7.24
2019-04-13T14:33:30.879Z,7.27
2019-04-13T14:35:43.868Z,7.25
2019-04-13T14:37:54.751Z,7.24
2019-04-13T14:40:06.575Z,7.23
2019-04-13T14:42:17.680Z,7.26
2019-04-13T14:44:28.591Z,7.32
2019-04-13T14:46:39.447Z,7.34
2019-04-13T14:48:50.421Z,7.27
2019-04-13T14:51:01.362Z,7.24
2019-04-13T14:53:14.795Z,7.19
2019-04-13T14:55:29.300Z,7.17
2019-04-13T14:57:39.033Z,7.05
2019-04-13T14:59:50.628Z,7.05
2019-04-13T15:02:01.617Z,7.04
2019-04-13T15:04:12.545Z,7.07
2019-04-13T15:06:25.089Z,7.05
2019-04-13T15:08:36.112Z,7.06
2019-04-13T15:10:47.058Z,6.96
2019-04-13T15:12:57.905Z,6.87
2019-04-13T15:15:09.350Z,6.98
2019-04-13T15:17:23.630Z,6.98
2019-04-13T15:19:41.509Z,6.99
2019-04-13T15:21:48.147Z,7.03
2019-04-13T15:24:00.068Z,6.98
2019-04-13T15:26:10.981Z,7.00
2019-04-13T15:28:21.913Z,7.04
2019-04-13T15:30:33.338Z,7.05
2019-04-13T15:32:45.048Z,6.98
2019-04-13T15:34:55.918Z,6.90
2019-04-13T15:37:09.519Z,6.92
2019-04-13T15:39:20.649Z,6.86
2019-04-13T15:41:41.510Z,6.92
2019-04-13T15:43:45.335Z,6.85
2019-04-13T15:45:57.096Z,6.81
2019-04-13T15:48:08.056Z,6.81
2019-04-13T15:50:19.958Z,6.76
2019-04-13T15:52:32.710Z,6.71
2019-04-13T15:54:43.710Z,6.78
2019-04-13T15:56:55.187Z,6.74
2019-04-13T15:59:06.173Z,6.72
2019-04-13T16:01:17.418Z,6.68
2019-04-13T16:03:30.508Z,6.67
2019-04-13T16:05:41.372Z,6.70
2019-04-13T16:07:52.939Z,6.66
2019-04-13T16:10:18.320Z,6.61
2019-04-13T16:12:34.241Z,6.58
2019-04-13T16:14:46.222Z,6.51
2019-04-13T16:16:57.281Z,6.48
2019-04-13T16:19:09.230Z,6.48
2019-04-13T16:21:20.235Z,6.43
2019-04-13T16:23:31.094Z,6.45
2019-04-13T16:25:42.415Z,6.45
2019-04-13T16:27:55.493Z,6.52
2019-04-13T16:30:11.048Z,6.53
2019-04-13T16:32:38.809Z,6.52
2019-04-13T16:34:55.206Z,6.46
2019-04-13T16:37:11.284Z,6.48
2019-04-13T16:39:23.643Z,6.51
2019-04-13T16:41:35.893Z,6.38
2019-04-13T16:43:58.074Z,6.36
2019-04-13T16:46:11.495Z,6.32
2019-04-13T16:48:38.555Z,6.27
2019-04-13T16:50:51.097Z,6.28
2019-04-13T16:53:06.611Z,6.18
2019-04-13T16:55:22.267Z,6.08
2019-04-13T16:57:40.248Z,6.13
2019-04-13T17:00:05.836Z,6.13
2019-04-13T17:02:25.096Z,6.18
2019-04-13T17:04:38.057Z,6.12
2019-04-13T17:06:50.388Z,6.13
2019-04-13T17:09:02.147Z,6.08
2019-04-13T17:11:13.113Z,6.06
2019-04-13T17:13:26.274Z,5.99
2019-04-13T17:15:37.717Z,5.97
2019-04-13T17:17:49.347Z,5.94
2019-04-13T17:20:05.642Z,5.97
2019-04-13T17:22:21.733Z,6.05
2019-04-13T17:24:37.326Z,6.00
2019-04-13T17:26:59.158Z,5.98
2019-04-13T17:29:20.962Z,5.88
2019-04-13T17:31:39.691Z,5.91
2019-04-13T17:33:56.328Z,5.93
2019-04-13T17:36:10.169Z,5.86
2019-04-13T17:38:22.103Z,5.82
2019-04-13T17:40:38.386Z,5.75
2019-04-13T17:43:04.017Z,5.79
2019-04-13T17:45:19.686Z,5.79
2019-04-13T17:47:45.227Z,5.77
2019-04-13T17:50:10.087Z,5.74
2019-04-13T17:52:40.616Z,5.77
2019-04-13T17:55:11.059Z,5.76
2019-04-13T17:57:30.782Z,5.71
2019-04-13T17:59:53.079Z,5.66
2019-04-13T18:02:06.945Z,5.67
2019-04-13T18:04:37.323Z,5.65
2019-04-13T18:06:51.031Z,5.58
2019-04-13T18:09:05.787Z,5.55
2019-04-13T18:11:36.175Z,5.57
2019-04-13T18:13:56.092Z,5.55
2019-04-13T18:16:11.258Z,5.51
2019-04-13T18:18:31.047Z,5.50
2019-04-13T18:20:42.788Z,5.48
2019-04-13T18:22:53.986Z,5.41
2019-04-13T18:25:05.668Z,5.44
2019-04-13T18:27:17.380Z,5.45
2019-04-13T18:29:28.390Z,5.41
2019-04-13T18:31:40.096Z,5.42
2019-04-13T18:33:51.156Z,5.33
2019-04-13T18:36:02.808Z,5.31
2019-04-13T18:38:14.584Z,5.35
2019-04-13T18:40:26.644Z,5.37
2019-04-13T18:42:51.773Z,5.39
2019-04-13T18:44:50.841Z,5.44
2019-04-13T18:47:01.953Z,5.35
2019-04-13T18:49:13.895Z,5.37
2019-04-13T18:51:25.559Z,5.27
2019-04-13T18:53:39.198Z,5.22
2019-04-13T18:55:49.515Z,5.22
2019-04-13T18:58:01.245Z,5.17
2019-04-13T19:00:13.617Z,5.15
2019-04-13T19:02:24.978Z,5.16
2019-04-13T19:04:36.065Z,5.20
2019-04-13T19:06:48.825Z,5.24
2019-04-13T19:08:59.751Z,5.17
2019-04-13T19:11:10.625Z,5.13
2019-04-13T19:13:21.493Z,5.14
2019-04-13T19:15:32.510Z,5.08
2019-04-13T19:17:43.385Z,5.03
2019-04-13T19:19:54.363Z,5.02
2019-04-13T19:22:05.328Z,5.01
2019-04-13T19:24:16.451Z,5.02
2019-04-13T19:26:27.407Z,5.13
2019-04-13T19:28:38.296Z,5.21
2019-04-13T19:30:49.179Z,5.13
2019-04-13T19:33:00.188Z,5.08
2019-04-13T19:35:11.252Z,5.07
2019-04-13T19:37:22.197Z,4.94
2019-04-13T19:39:33.094Z,4.96
2019-04-13T19:41:43.979Z,4.98
2019-04-13T19:43:56.760Z,4.99
2019-04-13T19:46:07.660Z,4.99
2019-04-13T19:48:18.640Z,4.93
2019-04-13T19:50:29.644Z,4.98
2019-04-13T19:52:48.375Z,4.99
2019-04-13T19:54:59.410Z,5.03
2019-04-13T19:57:10.379Z,4.98
2019-04-13T19:59:21.338Z,4.95
2019-04-13T20:01:32.229Z,4.90
2019-04-13T20:03:43.101Z,4.91
2019-04-13T20:05:54.092Z,5.02
2019-04-13T20:08:04.965Z,5.12
2019-04-13T20:10:16.638Z,5.10
2019-04-13T20:12:27.531Z,5.03
2019-04-13T20:14:39.538Z,4.99
2019-04-13T20:16:51.072Z,4.90
2019-04-13T20:19:02.194Z,4.96
2019-04-13T20:21:13.069Z,5.00
2019-04-13T20:23:23.933Z,4.95
2019-04-13T20:25:35.436Z,4.84
2019-04-13T20:27:47.689Z,4.79
2019-04-13T20:29:59.905Z,4.82
2019-04-13T20:32:11.017Z,4.82
2019-04-13T20:34:22.769Z,4.86
2019-04-13T20:36:36.646Z,4.85
2019-04-13T20:38:47.494Z,4.87
2019-04-13T20:41:00.425Z,4.75
2019-04-13T20:43:12.407Z,4.70
2019-04-13T20:45:24.407Z,4.71
2019-04-13T20:47:35.448Z,4.71
2019-04-13T20:49:47.028Z,4.63
2019-04-13T20:51:58.164Z,4.67
2019-04-13T20:54:09.142Z,4.68
2019-04-13T20:56:20.793Z,4.70
2019-04-13T20:58:31.710Z,4.62
2019-04-13T21:00:42.666Z,4.63
2019-04-13T21:02:54.722Z,4.64
2019-04-13T21:05:05.834Z,4.67
2019-04-13T21:07:16.706Z,4.66
2019-04-13T21:09:27.788Z,4.68
2019-04-13T21:11:39.446Z,4.65
2019-04-13T21:14:01.182Z,4.67
2019-04-13T21:16:04.089Z,4.71
2019-04-13T21:18:14.925Z,4.69
2019-04-13T21:20:25.804Z,4.70
2019-04-13T21:22:37.794Z,4.70
2019-04-13T21:24:48.700Z,4.71
2019-04-13T21:27:00.966Z,4.74
2019-04-13T21:29:13.160Z,4.78
2019-04-13T21:31:24.134Z,4.69
2019-04-13T21:33:34.967Z,4.67
2019-04-13T21:35:46.942Z,4.67
2019-04-13T21:37:57.973Z,4.67
2019-04-13T21:40:10.127Z,4.63
2019-04-13T21:42:21.127Z,4.62
2019-04-13T21:44:37.640Z,4.64
2019-04-13T21:46:45.833Z,4.63
2019-04-13T21:48:56.904Z,4.61
2019-04-13T21:51:26.919Z,4.63
2019-04-13T21:53:42.397Z,4.65
2019-04-13T21:55:53.297Z,4.68
2019-04-13T21:58:05.593Z,4.64
2019-04-13T22:00:22.674Z,4.63
2019-04-13T22:02:35.381Z,4.59
2019-04-13T22:04:46.411Z,4.62
2019-04-13T22:06:58.333Z,4.56
2019-04-13T22:09:11.014Z,4.57
2019-04-13T22:11:23.213Z,4.54
2019-04-13T22:13:34.289Z,4.52
2019-04-13T22:15:46.235Z,4.49
2019-04-13T22:17:57.564Z,4.53
2019-04-13T22:20:08.577Z,4.55
2019-04-13T22:22:20.667Z,4.52
2019-04-13T22:24:33.026Z,4.49
2019-04-13T22:26:44.157Z,4.52
2019-04-13T22:29:00.508Z,4.54
2019-04-13T22:31:22.300Z,4.40
2019-04-13T22:33:33.152Z,4.25
2019-04-13T22:35:45.923Z,4.32
2019-04-13T22:37:58.733Z,4.35
2019-04-13T22:40:10.417Z,4.24
2019-04-13T22:42:21.493Z,4.25
2019-04-13T22:44:41.382Z,4.25
2019-04-13T22:46:46.312Z,4.28
2019-04-13T22:49:06.014Z,4.28
2019-04-13T22:51:18.977Z,4.23
2019-04-13T22:53:32.922Z,4.19
2019-04-13T22:55:49.351Z,4.16
2019-04-13T22:58:00.760Z,4.18
2019-04-13T23:00:15.441Z,4.17
2019-04-13T23:02:32.002Z,4.07
2019-04-13T23:04:42.996Z,4.09
2019-04-13T23:06:53.974Z,4.09
2019-04-13T23:09:06.396Z,4.07
2019-04-13T23:11:17.271Z,4.11
2019-04-13T23:13:30.149Z,4.08
2019-04-13T23:15:42.532Z,4.10
2019-04-13T23:17:55.205Z,4.04
2019-04-13T23:20:08.222Z,4.06
2019-04-13T23:22:19.309Z,4.14
2019-04-13T23:24:31.767Z,4.11
2019-04-13T23:26:43.010Z,4.11
2019-04-13T23:28:53.883Z,4.14
2019-04-13T23:31:04.825Z,4.14
2019-04-13T23:33:16.809Z,4.07
2019-04-13T23:35:28.065Z,4.07
2019-04-13T23:37:38.869Z,4.11
2019-04-13T23:39:49.779Z,4.15
2019-04-13T23:42:00.646Z,4.18
2019-04-13T23:44:11.512Z,4.14
2019-04-13T23:46:22.384Z,4.12
2019-04-13T23:48:33.256Z,4.21
2019-04-13T23:50:44.247Z,4.08
2019-04-13T23:52:55.077Z,4.04
2019-04-13T23:55:06.043Z,4.08
2019-04-13T23:57:24.813Z,4.02
2019-04-13T23:59:37.557Z,3.99
